Weather at Louisville Muhammad Ali International Airport

Public forecast

Using degrees Fahrenheit for public forecast. Weather courtesy of forecast.io.

Current aviation weather report (METAR) for Louisville Muhammad Ali International Airport

2024/06/17 02:56 (retrieved 17 minutes ago)

KSDF 170256Z 19009KT 10SM FEW060 FEW250 32/21 A3000 RMK AO2 SLP151 T03170211 51015

Closest aviation forecast (TAF) to Louisville Muhammad Ali International Airport

Closest forecast is Grissom Air Reserve Base, 149.8 nm (277.4 km) N.

2024/06/16 21:18 (retrieved 6 hours ago)

TAF TAF KGUS 162100Z 1621/1803 19012G20KT 9999 SKC QNH2988INS BECMG 1700/1701 VRB06KT 9999 SKC QNH2988INS BECMG 1714/1715 22010G15KT 9999 SCT040 QNH2996INS TEMPO 1721/1724 22015G25KT 9000 -SHRA VCTS BKN030CB OVC100 BECMG 1723/1724 VRB06KT 9999 FEW100 QNH2996INS TX34/1719Z TN23/1710Z LAST NO AMDS AFT 1703 NEXT 1713